Time;durP1;ratioP1;P1;durP2;ratioP2;P2;SDS_P1;SDS_P2;PMS_P1;PMS_P2;Temp;Humidity;BMP_temperature;BMP_pressure;BME280_temperature;BME280_humidity;BME280_pressure;Samples;Min_cycle;Max_cycle;Signal;HPM_P1;HPM_P2
2022/08/08 00:00:25;;;;;;;4.80;3.00;;;15.10;99.90;;;;;;5051690;28;20530;-68
2022/08/08 00:03:05;;;;;;;6.18;3.97;;;15.20;99.90;;;;;;5051552;28;20048;-68
2022/08/08 00:06:02;;;;;;;4.93;3.08;;;15.30;99.90;;;;;;5143055;22;20047;-69
2022/08/08 00:08:46;;;;;;;4.88;3.50;;;15.30;99.90;;;;;;5130790;27;20043;-68
2022/08/08 00:11:37;;;;;;;4.53;3.40;;;15.20;99.90;;;;;;5132419;27;20031;-70
2022/08/08 00:14:08;;;;;;;4.35;2.97;;;15.30;99.90;;;;;;5132751;27;20063;-69
2022/08/08 00:16:44;;;;;;;5.97;3.60;;;15.40;99.90;;;;;;5133156;27;20120;-68
2022/08/08 00:19:12;;;;;;;8.18;3.80;;;15.30;99.90;;;;;;5132800;27;20404;-68
2022/08/08 00:21:44;;;;;;;6.32;2.50;;;15.30;99.90;;;;;;5131526;27;20071;-70
2022/08/08 00:24:15;;;;;;;4.47;2.05;;;15.10;99.90;;;;;;5132716;27;20027;-69
2022/08/08 00:26:47;;;;;;;2.40;1.52;;;15.20;99.90;;;;;;5132446;27;20543;-68
2022/08/08 00:29:21;;;;;;;1.40;1.30;;;15.10;99.90;;;;;;5132469;27;20641;-69
2022/08/08 00:31:52;;;;;;;1.98;1.55;;;15.00;99.90;;;;;;5132836;27;20088;-69
2022/08/08 00:37:19;;;;;;;1.23;1.00;;;15.00;99.90;;;;;;5132596;28;20485;-70
2022/08/08 00:40:23;;;;;;;1.98;1.25;;;15.00;99.90;;;;;;5131338;28;20043;-70
2022/08/08 00:42:55;;;;;;;3.13;1.17;;;14.90;99.90;;;;;;5100806;27;20104;-69
2022/08/08 00:45:52;;;;;;;2.60;1.00;;;15.00;99.90;;;;;;5132455;28;20046;-69
2022/08/08 00:48:48;;;;;;;1.40;1.30;;;15.00;99.90;;;;;;5131508;28;20065;-70
2022/08/08 00:51:29;;;;;;;3.20;1.73;;;14.90;99.90;;;;;;5132261;27;20148;-70
2022/08/08 00:54:13;;;;;;;3.28;1.27;;;14.80;99.90;;;;;;5132678;28;20035;-69
2022/08/08 00:56:56;;;;;;;2.00;1.70;;;14.90;99.90;;;;;;5132523;28;20039;-69
2022/08/08 00:59:53;;;;;;;1.90;1.70;;;14.80;99.90;;;;;;5132102;27;20039;-68
2022/08/08 01:02:45;;;;;;;2.58;1.63;;;14.90;99.90;;;;;;5132528;28;20049;-68
2022/08/08 01:05:43;;;;;;;2.25;1.83;;;14.90;99.90;;;;;;5100156;27;20047;-68
2022/08/08 01:08:11;;;;;;;1.85;1.42;;;14.80;99.90;;;;;;5132286;27;20125;-68
2022/08/08 01:10:43;;;;;;;3.35;1.70;;;14.70;99.90;;;;;;5132158;28;20074;-69
2022/08/08 01:13:38;;;;;;;2.15;1.65;;;14.80;99.90;;;;;;5132422;28;20051;-68
2022/08/08 01:16:28;;;;;;;2.85;1.65;;;14.80;99.90;;;;;;5132417;27;20074;-68
2022/08/08 01:19:02;;;;;;;2.92;2.00;;;14.80;99.90;;;;;;5132508;27;20043;-69
2022/08/08 01:21:38;;;;;;;2.58;1.48;;;14.70;99.90;;;;;;5132193;27;20039;-68
2022/08/08 01:24:35;;;;;;;3.00;1.90;;;14.70;99.90;;;;;;5130927;28;20039;-69
2022/08/08 01:27:20;;;;;;;2.22;1.80;;;14.90;99.90;;;;;;5132167;27;20054;-68
2022/08/08 01:30:40;;;;;;;3.00;1.95;;;14.70;99.90;;;;;;5132027;27;20377;-69
2022/08/08 01:33:30;;;;;;;4.50;2.20;;;14.70;99.90;;;;;;5051165;28;20102;-68
2022/08/08 01:36:24;;;;;;;3.30;2.42;;;14.90;99.90;;;;;;5132176;27;20051;-69
2022/08/08 01:39:08;;;;;;;2.75;2.35;;;14.90;99.90;;;;;;5135815;27;20043;-69
2022/08/08 01:41:58;;;;;;;6.80;2.67;;;14.90;99.90;;;;;;5135298;27;20517;-69
2022/08/08 01:44:33;;;;;;;5.95;3.53;;;14.70;99.90;;;;;;5134584;27;20557;-68
2022/08/08 01:47:16;;;;;;;4.70;3.30;;;14.70;99.90;;;;;;5135657;27;20031;-69
2022/08/08 01:49:47;;;;;;;7.25;3.15;;;14.60;99.90;;;;;;5135270;27;20046;-68
2022/08/08 01:52:32;;;;;;;6.53;3.45;;;14.70;99.90;;;;;;5135518;27;20550;-68
2022/08/08 01:55:16;;;;;;;5.15;3.47;;;14.60;99.90;;;;;;5135496;27;20039;-68
2022/08/08 01:58:14;;;;;;;5.90;3.58;;;14.80;99.90;;;;;;5135453;27;20039;-68
2022/08/08 02:00:53;;;;;;;5.63;4.28;;;14.80;99.90;;;;;;5135272;27;20039;-68
2022/08/08 02:03:31;;;;;;;7.63;3.78;;;14.80;99.90;;;;;;5135203;27;20043;-68
2022/08/08 02:06:24;;;;;;;5.00;3.83;;;14.80;99.90;;;;;;5135324;27;20454;-68
2022/08/08 02:09:14;;;;;;;5.80;3.42;;;14.70;99.90;;;;;;5135039;27;20437;-68
2022/08/08 02:11:45;;;;;;;9.98;3.45;;;14.70;99.90;;;;;;5135256;27;20035;-68
2022/08/08 02:14:36;;;;;;;5.65;3.25;;;14.70;99.90;;;;;;5135050;27;20044;-69
2022/08/08 02:17:23;;;;;;;5.50;3.20;;;14.60;99.90;;;;;;5135108;27;20067;-69
2022/08/08 02:20:01;;;;;;;5.22;3.30;;;14.80;99.90;;;;;;5134791;27;20468;-68
2022/08/08 02:22:48;;;;;;;4.78;2.58;;;14.70;99.90;;;;;;5134932;27;20039;-68
2022/08/08 02:25:45;;;;;;;3.40;2.55;;;14.60;99.90;;;;;;5134719;27;20028;-68
2022/08/08 02:28:45;;;;;;;3.53;2.58;;;14.70;99.90;;;;;;5106437;27;20512;-68
2022/08/08 02:31:39;;;;;;;2.60;2.10;;;14.70;99.90;;;;;;5123302;27;20043;-68
2022/08/08 02:34:26;;;;;;;5.35;2.85;;;14.70;99.90;;;;;;5134830;27;20084;-68
2022/08/08 02:37:18;;;;;;;2.17;1.75;;;14.50;99.90;;;;;;5134751;27;20039;-68
2022/08/08 02:39:56;;;;;;;2.60;1.67;;;14.50;99.90;;;;;;5134272;27;20442;-69
2022/08/08 02:43:09;;;;;;;3.63;2.80;;;14.60;99.90;;;;;;5134612;27;20046;-68
2022/08/08 02:45:47;;;;;;;4.35;2.45;;;14.50;99.90;;;;;;5134103;27;20500;-69
2022/08/08 02:48:18;;;;;;;5.72;3.20;;;14.60;99.90;;;;;;5134366;27;20031;-69
2022/08/08 02:51:16;;;;;;;8.30;3.08;;;14.40;99.90;;;;;;5134204;27;20031;-68
2022/08/08 02:54:01;;;;;;;6.82;3.20;;;14.50;99.90;;;;;;5134258;27;20119;-68
2022/08/08 02:57:05;;;;;;;5.18;3.30;;;14.60;99.90;;;;;;5134190;27;20519;-68
2022/08/08 02:59:55;;;;;;;6.35;3.00;;;14.70;99.90;;;;;;5133968;27;20043;-69
2022/08/08 03:02:48;;;;;;;3.53;2.20;;;14.40;99.90;;;;;;5133972;27;20508;-68
2022/08/08 03:05:45;;;;;;;4.88;2.50;;;14.60;99.90;;;;;;5133899;27;20058;-68
2022/08/08 03:08:26;;;;;;;3.90;2.42;;;14.50;99.90;;;;;;5134085;27;20079;-68
2022/08/08 03:11:22;;;;;;;4.95;2.03;;;14.40;99.90;;;;;;5133984;27;20046;-69
2022/08/08 03:14:25;;;;;;;3.70;2.22;;;14.40;99.90;;;;;;5133987;27;20070;-68
2022/08/08 03:17:01;;;;;;;5.47;2.00;;;14.30;99.90;;;;;;5133931;27;20031;-68
2022/08/08 03:19:54;;;;;;;4.43;2.08;;;14.30;99.90;;;;;;5133374;27;20045;-68
2022/08/08 03:22:20;;;;;;;2.25;1.45;;;14.30;99.90;;;;;;5133700;27;20473;-68
2022/08/08 03:24:45;;;;;;;2.80;1.52;;;14.20;99.90;;;;;;5133691;27;20071;-69
2022/08/08 03:27:25;;;;;;;1.67;1.40;;;14.10;99.90;;;;;;5133697;27;20479;-68
2022/08/08 03:30:02;;;;;;;2.17;1.30;;;14.20;99.90;;;;;;5133223;27;20035;-69
2022/08/08 03:35:12;;;;;;;1.85;1.55;;;14.10;99.90;;;;;;5133586;27;20122;-68
2022/08/08 03:37:38;;;;;;;2.65;1.98;;;14.10;99.90;;;;;;5133500;27;20508;-68
2022/08/08 03:40:05;;;;;;;2.80;2.42;;;14.00;99.90;;;;;;5131776;27;20038;-69
2022/08/08 03:42:31;;;;;;;5.13;2.22;;;14.20;99.90;;;;;;5132102;27;20424;-69
2022/08/08 03:44:57;;;;;;;3.60;2.58;;;14.20;99.90;;;;;;5131983;27;20049;-69
2022/08/08 03:47:23;;;;;;;3.65;2.90;;;14.20;99.90;;;;;;5133405;27;20042;-68
2022/08/08 03:49:49;;;;;;;5.15;3.00;;;14.10;99.90;;;;;;5133003;27;20035;-69
2022/08/08 03:52:15;;;;;;;8.77;3.15;;;14.30;99.90;;;;;;5133186;27;20035;-68
2022/08/08 03:54:45;;;;;;;4.47;3.55;;;14.40;99.90;;;;;;5132823;27;20039;-69
2022/08/08 03:57:12;;;;;;;5.38;2.90;;;14.20;99.90;;;;;;5132059;27;20408;-68
2022/08/08 03:59:38;;;;;;;2.90;2.50;;;14.50;99.90;;;;;;5131687;27;20044;-68
2022/08/08 04:02:17;;;;;;;3.28;1.80;;;14.40;99.90;;;;;;5131692;27;20104;-68
2022/08/08 04:04:43;;;;;;;4.30;2.35;;;14.30;99.90;;;;;;5131713;27;20400;-68
2022/08/08 04:07:09;;;;;;;3.10;1.40;;;14.30;99.90;;;;;;5132833;27;20031;-68
2022/08/08 04:09:35;;;;;;;3.10;1.73;;;14.30;99.90;;;;;;5132660;27;20083;-69
2022/08/08 04:12:00;;;;;;;2.30;1.25;;;14.40;99.90;;;;;;5133123;27;20057;-68
2022/08/08 04:14:26;;;;;;;4.82;1.70;;;14.40;99.90;;;;;;5132810;27;20087;-68
2022/08/08 04:16:52;;;;;;;4.05;2.80;;;14.40;99.90;;;;;;5133053;27;20043;-68
2022/08/08 04:19:18;;;;;;;2.72;1.58;;;14.30;99.90;;;;;;5132577;27;20046;-68
2022/08/08 04:21:43;;;;;;;2.00;1.50;;;14.50;99.90;;;;;;5132622;27;20046;-68
2022/08/08 04:24:09;;;;;;;1.80;1.40;;;14.40;99.90;;;;;;5131700;27;20122;-68
2022/08/08 04:26:34;;;;;;;3.13;1.50;;;14.40;99.90;;;;;;5132916;28;20084;-69
2022/08/08 04:29:00;;;;;;;1.85;1.38;;;14.50;99.90;;;;;;5132834;28;20106;-69
2022/08/08 04:31:26;;;;;;;2.17;1.80;;;14.30;99.90;;;;;;5132648;28;20039;-68
2022/08/08 04:33:51;;;;;;;3.50;2.40;;;14.40;99.90;;;;;;5132681;28;20111;-68
2022/08/08 04:36:17;;;;;;;4.22;2.80;;;14.50;99.90;;;;;;5132616;28;20035;-68
2022/08/08 04:38:42;;;;;;;4.93;2.65;;;14.70;99.90;;;;;;5132506;28;20556;-68
2022/08/08 04:41:08;;;;;;;3.58;2.85;;;14.60;99.90;;;;;;5132540;28;20035;-68
2022/08/08 04:43:33;;;;;;;5.65;3.72;;;14.60;99.90;;;;;;5132600;28;20031;-68
2022/08/08 04:46:00;;;;;;;4.50;3.97;;;14.50;99.90;;;;;;5132618;28;20031;-69
2022/08/08 04:48:25;;;;;;;6.70;3.80;;;14.70;99.90;;;;;;5132577;27;20057;-69
2022/08/08 04:50:51;;;;;;;5.53;3.63;;;14.70;99.90;;;;;;5132151;28;20564;-69
2022/08/08 04:53:17;;;;;;;7.72;4.05;;;14.60;99.90;;;;;;5132357;28;20113;-69
2022/08/08 04:55:42;;;;;;;6.90;3.90;;;14.70;99.90;;;;;;5132558;28;20039;-68
2022/08/08 04:58:12;;;;;;;6.38;3.80;;;14.70;99.90;;;;;;5131729;28;20041;-68
2022/08/08 05:00:39;;;;;;;8.07;4.45;;;14.70;99.90;;;;;;5119346;28;20039;-68
2022/08/08 05:03:04;;;;;;;6.72;4.32;;;14.80;99.90;;;;;;5121014;28;20543;-68
2022/08/08 05:05:30;;;;;;;5.65;3.78;;;14.70;99.90;;;;;;5129065;28;20073;-69
2022/08/08 05:07:55;;;;;;;8.20;3.72;;;14.80;99.90;;;;;;5134762;27;20039;-69
2022/08/08 05:10:21;;;;;;;6.53;4.15;;;14.70;99.90;;;;;;5136165;27;20413;-68
2022/08/08 05:12:46;;;;;;;6.57;4.18;;;14.70;99.90;;;;;;5136343;27;20074;-69
2022/08/08 05:15:12;;;;;;;5.30;3.92;;;14.90;99.90;;;;;;5136106;27;20110;-68
2022/08/08 05:17:38;;;;;;;6.43;4.43;;;15.00;99.90;;;;;;5134860;27;20069;-68
2022/08/08 05:20:04;;;;;;;9.82;4.15;;;14.80;99.90;;;;;;5134451;27;20092;-68
2022/08/08 05:22:30;;;;;;;6.78;4.25;;;15.00;99.90;;;;;;5135965;27;20049;-69
2022/08/08 05:24:56;;;;;;;6.68;4.20;;;14.90;99.90;;;;;;5134697;27;20114;-68
2022/08/08 05:27:22;;;;;;;5.55;3.85;;;14.90;99.90;;;;;;5129475;27;20043;-68
2022/08/08 05:29:47;;;;;;;7.20;3.85;;;14.90;99.90;;;;;;5135745;27;20031;-69
2022/08/08 05:32:13;;;;;;;5.28;4.78;;;15.10;99.90;;;;;;5134599;27;20535;-68
2022/08/08 05:34:46;;;;;;;8.18;4.57;;;14.90;99.90;;;;;;5135339;27;20043;-67
2022/08/08 05:37:17;;;;;;;7.60;4.78;;;15.00;99.90;;;;;;5136112;27;20039;-67
2022/08/08 05:39:48;;;;;;;7.68;5.20;;;15.20;99.90;;;;;;5135617;27;20051;-67
2022/08/08 05:42:14;;;;;;;9.25;4.93;;;15.10;99.90;;;;;;5135798;27;20071;-67
2022/08/08 05:44:45;;;;;;;8.32;4.72;;;15.30;99.90;;;;;;5135650;27;20131;-67
2022/08/08 05:47:12;;;;;;;8.00;4.72;;;15.20;99.90;;;;;;5135597;27;20042;-67
2022/08/08 05:49:39;;;;;;;7.35;4.50;;;15.30;99.90;;;;;;5135555;27;20406;-67
2022/08/08 05:52:05;;;;;;;5.55;4.15;;;15.50;99.90;;;;;;5135551;27;20043;-67
2022/08/08 05:54:30;;;;;;;6.90;4.53;;;15.70;99.90;;;;;;5135506;27;20041;-68
2022/08/08 05:56:56;;;;;;;10.50;4.93;;;15.70;99.90;;;;;;5135546;27;20035;-67
2022/08/08 05:59:23;;;;;;;6.32;5.18;;;15.80;99.90;;;;;;5135158;27;20043;-67
2022/08/08 06:01:55;;;;;;;10.38;5.60;;;15.90;99.90;;;;;;5135198;27;20035;-67
2022/08/08 06:04:26;;;;;;;8.70;4.30;;;15.90;99.90;;;;;;5143620;22;20040;-72
2022/08/08 06:06:57;;;;;;;10.38;4.80;;;16.10;99.90;;;;;;5072960;28;20036;-71
2022/08/08 06:09:27;;;;;;;9.60;4.47;;;16.40;99.90;;;;;;5071921;28;20028;-72
2022/08/08 06:11:58;;;;;;;7.28;4.60;;;16.40;99.90;;;;;;5072756;28;20131;-72
2022/08/08 06:14:25;;;;;;;6.68;4.65;;;16.50;99.90;;;;;;5072435;28;20051;-71
2022/08/08 06:16:52;;;;;;;11.35;4.90;;;16.60;99.90;;;;;;5073760;28;20047;-71
2022/08/08 06:19:18;;;;;;;10.68;5.78;;;17.00;99.90;;;;;;5073299;28;20032;-72
2022/08/08 06:21:47;;;;;;;8.85;4.85;;;17.50;99.90;;;;;;5072346;28;20068;-71
2022/08/08 06:24:13;;;;;;;9.45;5.18;;;18.00;99.90;;;;;;5055704;28;20032;-71
2022/08/08 06:26:43;;;;;;;6.43;4.22;;;18.30;99.90;;;;;;5055689;28;20044;-71
2022/08/08 06:29:13;;;;;;;6.80;4.03;;;18.70;99.90;;;;;;5073284;28;20564;-72
2022/08/08 06:31:42;;;;;;;7.78;3.58;;;19.00;99.90;;;;;;5073971;28;20437;-72
2022/08/08 06:34:16;;;;;;;7.03;3.05;;;19.40;99.90;;;;;;5073490;28;20044;-72
2022/08/08 06:36:43;;;;;;;7.50;3.33;;;19.50;99.90;;;;;;5073455;28;20040;-72
2022/08/08 06:39:11;;;;;;;6.20;2.95;;;19.40;99.90;;;;;;5071966;28;20273;-72
2022/08/08 06:41:44;;;;;;;8.52;3.00;;;19.40;99.90;;;;;;5073220;28;20047;-72
2022/08/08 06:44:14;;;;;;;8.18;2.88;;;19.20;99.90;;;;;;5071950;28;20040;-72
2022/08/08 06:46:40;;;;;;;8.75;2.95;;;19.10;99.90;;;;;;5072074;28;20054;-72
2022/08/08 06:49:06;;;;;;;4.55;3.05;;;18.90;99.90;;;;;;5055124;28;20033;-72
2022/08/08 06:51:32;;;;;;;5.63;3.25;;;18.70;99.90;;;;;;5071592;28;20041;-72
2022/08/08 06:53:59;;;;;;;6.85;3.20;;;18.90;99.90;;;;;;5072913;28;20497;-72
2022/08/08 06:56:25;;;;;;;5.22;3.00;;;18.70;99.90;;;;;;5054983;28;20459;-72
2022/08/08 06:58:51;;;;;;;6.25;3.17;;;18.80;99.90;;;;;;5071822;28;20425;-72
2022/08/08 07:01:17;;;;;;;7.38;3.45;;;18.80;99.90;;;;;;5071215;28;20123;-72
2022/08/08 07:03:59;;;;;;;7.47;2.85;;;18.80;99.90;;;;;;5072823;28;20505;-72
2022/08/08 07:06:30;;;;;;;6.22;3.10;;;19.20;99.90;;;;;;5072765;28;20045;-72
2022/08/08 07:09:11;;;;;;;8.02;3.17;;;19.10;99.90;;;;;;5071561;28;20083;-72
2022/08/08 07:11:40;;;;;;;7.25;3.20;;;19.00;99.90;;;;;;5054673;28;20394;-72
2022/08/08 07:14:07;;;;;;;4.65;3.03;;;19.30;99.90;;;;;;5071294;28;20127;-73
2022/08/08 07:16:53;;;;;;;5.95;2.45;;;19.50;99.90;;;;;;5071296;28;20513;-72
2022/08/08 07:19:45;;;;;;;8.55;2.97;;;19.60;99.90;;;;;;5071057;28;20094;-72
2022/08/08 07:22:14;;;;;;;7.03;2.40;;;19.90;99.90;;;;;;5071354;28;20051;-73
2022/08/08 07:24:40;;;;;;;4.43;2.40;;;20.20;99.90;;;;;;5071247;28;20041;-72
2022/08/08 07:27:09;;;;;;;6.00;2.50;;;20.40;99.90;;;;;;5071391;28;20044;-73
2022/08/08 07:29:36;;;;;;;5.65;2.58;;;20.70;99.90;;;;;;5070256;28;20040;-73
2022/08/08 07:32:02;;;;;;;6.10;2.42;;;20.70;99.90;;;;;;5071297;28;20044;-72
2022/08/08 07:34:28;;;;;;;4.25;2.38;;;20.50;99.90;;;;;;5054305;28;20724;-73
2022/08/08 07:36:56;;;;;;;8.43;2.45;;;20.60;99.90;;;;;;5054328;28;20577;-73
2022/08/08 07:39:22;;;;;;;5.07;1.95;;;20.50;99.90;;;;;;5054019;28;20070;-72
2022/08/08 07:41:49;;;;;;;7.40;2.47;;;20.70;99.90;;;;;;5072058;28;20123;-73
2022/08/08 07:44:17;;;;;;;3.88;2.35;;;20.90;99.90;;;;;;5070730;28;20048;-73
2022/08/08 07:46:44;;;;;;;5.22;1.75;;;21.00;99.90;;;;;;5054024;28;20406;-73
2022/08/08 07:49:12;;;;;;;3.85;1.92;;;21.10;99.90;;;;;;5054039;28;20056;-73
2022/08/08 07:51:39;;;;;;;6.03;2.20;;;21.20;99.90;;;;;;5054061;28;20609;-73
2022/08/08 07:54:31;;;;;;;5.13;1.75;;;21.20;99.90;;;;;;5070643;28;20138;-73
2022/08/08 07:57:16;;;;;;;3.03;1.67;;;21.30;99.90;;;;;;5054129;28;20093;-73
2022/08/08 07:59:54;;;;;;;5.55;1.73;;;21.20;99.90;;;;;;5070542;28;20047;-73
2022/08/08 08:02:25;;;;;;;6.38;2.22;;;20.90;99.90;;;;;;5053984;28;20044;-73
2022/08/08 08:04:58;;;;;;;6.18;2.40;;;20.90;99.90;;;;;;5070656;28;20056;-72
2022/08/08 08:07:25;;;;;;;5.75;2.13;;;20.70;99.90;;;;;;5053914;28;20037;-72
2022/08/08 08:09:51;;;;;;;5.78;2.33;;;20.50;99.90;;;;;;5070211;28;20044;-72
2022/08/08 08:12:19;;;;;;;3.78;1.95;;;20.50;99.90;;;;;;5070563;28;20043;-72
2022/08/08 08:15:05;;;;;;;5.30;2.00;;;20.80;99.90;;;;;;5070294;28;20044;-72
2022/08/08 08:17:39;;;;;;;5.50;1.85;;;21.40;99.90;;;;;;5053790;28;20040;-72
2022/08/08 08:20:06;;;;;;;4.30;1.80;;;21.50;99.90;;;;;;5053526;28;20048;-72
2022/08/08 08:22:32;;;;;;;6.32;1.83;;;21.30;99.90;;;;;;5070272;28;20187;-72
2022/08/08 08:24:58;;;;;;;8.10;1.60;;;21.30;99.90;;;;;;5070285;28;20116;-73
2022/08/08 08:27:24;;;;;;;5.28;1.73;;;21.10;99.90;;;;;;5070337;28;20460;-74
2022/08/08 08:29:49;;;;;;;5.28;1.35;;;20.80;99.90;;;;;;5053155;28;20170;-73
2022/08/08 08:32:15;;;;;;;5.90;1.58;;;20.60;99.90;;;;;;5070280;28;20079;-73
2022/08/08 08:34:41;;;;;;;3.92;1.50;;;20.50;99.90;;;;;;5070966;28;20074;-73
2022/08/08 08:37:06;;;;;;;7.65;1.92;;;20.40;99.90;;;;;;5070479;28;20116;-74
2022/08/08 08:39:32;;;;;;;4.50;1.45;;;20.30;99.90;;;;;;5070103;28;20086;-73
2022/08/08 08:41:58;;;;;;;4.43;1.30;;;20.30;99.90;;;;;;5072807;28;20044;-73
2022/08/08 08:44:25;;;;;;;2.10;1.30;;;20.20;99.90;;;;;;5057668;28;20037;-72
2022/08/08 08:46:52;;;;;;;3.92;1.30;;;20.30;99.90;;;;;;5074285;28;20063;-73
2022/08/08 08:49:18;;;;;;;2.15;1.20;;;20.40;99.90;;;;;;5075427;28;20041;-73
2022/08/08 08:51:45;;;;;;;4.07;1.45;;;20.30;99.90;;;;;;5057516;28;20454;-73
2022/08/08 08:54:12;;;;;;;3.35;1.50;;;20.30;99.90;;;;;;5073990;28;20044;-73
2022/08/08 08:56:38;;;;;;;6.72;1.60;;;20.30;99.90;;;;;;5074026;28;20456;-73
2022/08/08 08:59:04;;;;;;;5.30;1.08;;;20.40;99.90;;;;;;5057147;28;20170;-73
2022/08/08 09:01:36;;;;;;;2.95;1.23;;;20.90;99.90;;;;;;5074080;28;20433;-72
2022/08/08 09:04:12;;;;;;;4.95;1.40;;;21.60;99.70;;;;;;5070889;28;20036;-73
2022/08/08 09:06:41;;;;;;;4.47;1.30;;;22.00;98.40;;;;;;5068708;28;20094;-73
2022/08/08 09:09:15;;;;;;;6.30;1.38;;;22.10;97.10;;;;;;5073571;28;20033;-74
2022/08/08 09:11:44;;;;;;;2.95;0.90;;;22.30;96.40;;;;;;5073625;28;20434;-74
2022/08/08 09:14:10;;;;;;;2.72;0.93;;;22.30;95.40;;;;;;5042467;28;20410;-74
2022/08/08 09:16:36;;;;;;;2.33;0.93;;;22.50;94.30;;;;;;5073367;28;20086;-74
2022/08/08 09:19:02;;;;;;;4.13;1.10;;;22.50;93.30;;;;;;5056419;28;20051;-74
2022/08/08 09:21:28;;;;;;;2.55;0.98;;;22.80;92.70;;;;;;5056403;28;20028;-74
2022/08/08 09:23:54;;;;;;;2.85;1.10;;;22.70;92.10;;;;;;5056437;28;20063;-74
2022/08/08 09:26:23;;;;;;;2.58;1.00;;;22.90;92.10;;;;;;5056432;28;20115;-74
2022/08/08 09:28:50;;;;;;;1.83;0.93;;;22.60;91.10;;;;;;5073020;28;20081;-75
2022/08/08 09:31:44;;;;;;;3.90;1.38;;;22.40;91.60;;;;;;5072804;28;20037;-74
2022/08/08 09:34:12;;;;;;;4.88;1.35;;;22.20;91.30;;;;;;5072876;28;20052;-73
2022/08/08 09:36:39;;;;;;;1.95;1.10;;;22.00;93.10;;;;;;5072584;28;20414;-73
2022/08/08 09:39:05;;;;;;;3.22;1.20;;;21.80;93.70;;;;;;5073237;28;20436;-73
2022/08/08 09:41:37;;;;;;;2.08;1.10;;;21.80;94.30;;;;;;5072494;28;20025;-73
2022/08/08 09:44:19;;;;;;;3.25;1.10;;;21.70;94.80;;;;;;5072615;28;20115;-74
2022/08/08 09:46:49;;;;;;;3.88;1.20;;;21.60;94.30;;;;;;5055819;28;20056;-73
2022/08/08 09:49:17;;;;;;;3.88;0.98;;;21.60;94.90;;;;;;5055779;28;20115;-74
2022/08/08 09:51:47;;;;;;;2.67;0.93;;;21.60;94.90;;;;;;5072927;28;20119;-73
2022/08/08 09:54:17;;;;;;;3.70;0.98;;;21.50;93.30;;;;;;5055555;28;20076;-74
2022/08/08 09:56:46;;;;;;;2.20;0.77;;;21.80;93.30;;;;;;5073078;28;20563;-73
2022/08/08 09:59:22;;;;;;;3.22;1.13;;;21.80;92.40;;;;;;5072858;28;20397;-74
2022/08/08 10:01:55;;;;;;;3.03;1.00;;;21.90;92.60;;;;;;5072991;28;20032;-73
2022/08/08 10:04:25;;;;;;;3.25;1.00;;;21.80;91.70;;;;;;5072839;28;20059;-73
2022/08/08 10:06:52;;;;;;;2.47;1.15;;;21.80;92.10;;;;;;5056049;28;20052;-73
2022/08/08 10:09:40;;;;;;;1.83;1.00;;;21.80;91.90;;;;;;5072305;28;20052;-73
2022/08/08 10:12:06;;;;;;;3.75;0.95;;;22.00;91.10;;;;;;5055956;28;20040;-73
2022/08/08 10:14:37;;;;;;;2.72;0.88;;;22.00;91.50;;;;;;5055620;28;20059;-73
2022/08/08 10:17:05;;;;;;;4.57;1.00;;;22.10;91.20;;;;;;5072487;28;20037;-73
2022/08/08 10:19:39;;;;;;;2.83;1.08;;;22.50;92.40;;;;;;5073492;28;20112;-73
2022/08/08 10:22:06;;;;;;;4.03;1.27;;;22.60;91.80;;;;;;5072395;28;20063;-73
2022/08/08 10:24:33;;;;;;;2.08;0.90;;;22.50;91.90;;;;;;5072768;28;20043;-73
2022/08/08 10:27:01;;;;;;;1.65;0.85;;;22.60;91.90;;;;;;5072624;28;20530;-73
2022/08/08 10:29:38;;;;;;;1.90;0.82;;;22.40;91.50;;;;;;5071972;28;20041;-73
2022/08/08 10:34:58;;;;;;;2.38;0.80;;;22.30;91.60;;;;;;5073248;28;20409;-74
2022/08/08 10:37:32;;;;;;;1.30;0.93;;;22.30;91.70;;;;;;5072225;28;20045;-73
2022/08/08 10:40:00;;;;;;;2.00;1.00;;;22.20;91.70;;;;;;5072987;28;20493;-73
2022/08/08 10:42:35;;;;;;;1.42;0.90;;;22.20;91.30;;;;;;5071920;28;20127;-73
2022/08/08 10:45:03;;;;;;;2.47;1.30;;;22.30;92.10;;;;;;5072367;28;20615;-73
2022/08/08 10:47:29;;;;;;;2.35;1.20;;;22.40;91.50;;;;;;5073128;28;20037;-73
2022/08/08 10:50:06;;;;;;;3.30;1.08;;;22.70;91.20;;;;;;5071702;28;20386;-74
2022/08/08 10:52:40;;;;;;;5.25;1.20;;;22.80;90.70;;;;;;5071969;28;20072;-74
2022/08/08 10:55:09;;;;;;;1.48;0.85;;;22.60;89.80;;;;;;5055392;28;20041;-73
2022/08/08 10:57:39;;;;;;;2.40;1.00;;;22.70;91.10;;;;;;5071892;28;20036;-73
2022/08/08 11:00:07;;;;;;;6.15;0.95;;;22.50;90.30;;;;;;5072939;28;20064;-73
2022/08/08 11:02:33;;;;;;;1.98;0.88;;;22.40;91.70;;;;;;5070964;28;20045;-72
2022/08/08 11:05:02;;;;;;;3.28;1.10;;;22.30;91.00;;;;;;5070398;28;20397;-73
2022/08/08 11:07:33;;;;;;;1.92;1.00;;;22.20;90.90;;;;;;5072863;28;20116;-73
2022/08/08 11:10:05;;;;;;;2.55;0.80;;;22.20;91.00;;;;;;5071125;28;20041;-73
2022/08/08 11:12:50;;;;;;;3.30;0.80;;;22.00;90.00;;;;;;5071194;28;20044;-73
2022/08/08 11:15:18;;;;;;;2.63;0.88;;;22.00;89.90;;;;;;5071519;28;20135;-73
2022/08/08 11:17:45;;;;;;;2.22;0.60;;;22.10;90.50;;;;;;5054575;28;20565;-73
2022/08/08 11:20:13;;;;;;;4.45;0.95;;;21.80;90.10;;;;;;5071453;28;20083;-73
2022/08/08 11:22:40;;;;;;;2.45;1.02;;;22.00;90.90;;;;;;5071822;28;20072;-74
2022/08/08 11:25:07;;;;;;;2.05;1.10;;;21.90;90.70;;;;;;5070852;28;20077;-74
2022/08/08 11:27:34;;;;;;;1.30;0.70;;;21.90;91.00;;;;;;5071160;28;20440;-73
2022/08/08 11:30:03;;;;;;;3.92;1.10;;;21.90;91.40;;;;;;5072231;28;20040;-73
2022/08/08 11:32:30;;;;;;;3.75;1.42;;;21.80;90.80;;;;;;5054413;28;20044;-74
2022/08/08 11:35:12;;;;;;;3.22;1.02;;;21.70;90.80;;;;;;5071135;28;20395;-72
2022/08/08 11:37:39;;;;;;;3.25;1.02;;;21.80;90.60;;;;;;5054264;28;20132;-73
2022/08/08 11:40:08;;;;;;;2.10;0.70;;;21.80;90.80;;;;;;5070614;28;20051;-72
2022/08/08 11:42:33;;;;;;;5.47;1.50;;;21.80;90.70;;;;;;5054217;28;20040;-73
2022/08/08 11:45:00;;;;;;;4.75;0.82;;;21.90;91.20;;;;;;5070820;28;20543;-73
2022/08/08 11:47:27;;;;;;;3.00;0.95;;;21.80;91.10;;;;;;5071157;28;20040;-73
2022/08/08 11:49:59;;;;;;;2.10;0.82;;;21.90;90.80;;;;;;5070339;28;20075;-73
2022/08/08 11:52:26;;;;;;;3.45;0.93;;;21.90;90.60;;;;;;5069263;28;20048;-73
2022/08/08 11:54:51;;;;;;;4.32;1.08;;;21.90;90.40;;;;;;5073807;28;20046;-72
2022/08/08 11:57:17;;;;;;;3.65;1.00;;;21.70;90.40;;;;;;5090716;28;20039;-72
2022/08/08 11:59:53;;;;;;;2.90;1.20;;;21.80;91.00;;;;;;5090791;28;20036;-73
2022/08/08 12:02:20;;;;;;;2.47;1.08;;;21.80;91.90;;;;;;5090892;28;20040;-72
2022/08/08 12:04:46;;;;;;;4.70;1.17;;;21.70;90.90;;;;;;5058467;28;20071;-73
2022/08/08 12:07:12;;;;;;;8.93;1.75;;;21.70;90.50;;;;;;5106217;22;20060;-70
2022/08/08 12:09:37;;;;;;;28.08;2.78;;;21.80;90.40;;;;;;5093597;28;20051;-70
2022/08/08 12:12:03;;;;;;;3.05;1.05;;;21.80;90.40;;;;;;5094104;28;20032;-70
2022/08/08 12:14:29;;;;;;;13.52;2.45;;;21.90;89.80;;;;;;5093398;28;20040;-70
2022/08/08 12:16:55;;;;;;;5.85;1.10;;;21.90;90.10;;;;;;5091551;28;20109;-71
2022/08/08 12:19:22;;;;;;;10.98;1.25;;;22.00;89.20;;;;;;5090472;28;20036;-70
2022/08/08 12:21:48;;;;;;;4.03;1.00;;;22.00;88.40;;;;;;5104087;28;20448;-70
2022/08/08 12:24:18;;;;;;;1.63;0.85;;;22.00;88.00;;;;;;5091502;28;20036;-70
2022/08/08 12:26:44;;;;;;;4.82;1.27;;;21.90;88.30;;;;;;5090635;28;20370;-70
2022/08/08 12:29:36;;;;;;;2.13;0.90;;;21.80;89.70;;;;;;5091801;28;20089;-70
2022/08/08 12:32:08;;;;;;;3.33;1.10;;;21.70;89.00;;;;;;5088473;28;20104;-71
2022/08/08 12:34:44;;;;;;;1.83;0.70;;;21.70;89.20;;;;;;5089702;28;20032;-70
2022/08/08 12:37:21;;;;;;;7.90;1.33;;;21.70;89.10;;;;;;5091682;28;20277;-70
2022/08/08 12:39:47;;;;;;;3.60;0.93;;;21.70;89.50;;;;;;5091168;28;20124;-70
2022/08/08 12:42:13;;;;;;;4.80;1.10;;;21.60;89.70;;;;;;5091462;28;20036;-70
2022/08/08 12:44:40;;;;;;;2.50;0.90;;;21.60;89.40;;;;;;5091739;28;20036;-69
2022/08/08 12:47:07;;;;;;;2.83;1.00;;;21.50;90.20;;;;;;5091750;28;20032;-70
2022/08/08 12:49:34;;;;;;;4.20;1.45;;;21.60;90.40;;;;;;5091836;28;20093;-70
2022/08/08 12:52:01;;;;;;;5.47;1.63;;;21.60;90.90;;;;;;5092142;28;20409;-70
2022/08/08 12:54:36;;;;;;;5.07;1.15;;;21.60;91.40;;;;;;5091748;28;20546;-69
2022/08/08 12:57:22;;;;;;;4.50;1.70;;;21.60;92.00;;;;;;5091631;28;20069;-70
2022/08/08 12:59:53;;;;;;;4.90;1.42;;;21.60;91.60;;;;;;5091507;28;20139;-69
2022/08/08 13:02:33;;;;;;;3.75;1.52;;;21.60;91.70;;;;;;5090503;28;20119;-69
2022/08/08 13:05:17;;;;;;;3.15;1.33;;;21.50;92.10;;;;;;5091620;28;20036;-72
2022/08/08 13:07:43;;;;;;;2.15;1.08;;;21.60;92.50;;;;;;5091472;28;20046;-70
2022/08/08 13:10:10;;;;;;;5.20;1.13;;;21.50;92.20;;;;;;5091045;28;20036;-70
2022/08/08 13:12:38;;;;;;;2.83;1.25;;;21.60;92.10;;;;;;5091289;28;20090;-70
2022/08/08 13:15:19;;;;;;;3.85;1.42;;;21.60;91.80;;;;;;5091509;28;20044;-69
2022/08/08 13:17:44;;;;;;;7.07;1.25;;;21.60;91.40;;;;;;5091244;28;20079;-69
2022/08/08 13:20:15;;;;;;;3.92;1.15;;;21.60;91.60;;;;;;5090202;28;20071;-68
2022/08/08 13:22:42;;;;;;;6.13;1.23;;;21.80;91.70;;;;;;5090903;28;20036;-70